sensor_id;sensor_type;location;lat;lon;timestamp;P1;durP1;ratioP1;P2;durP2;ratioP2
22449;SDS011;11392;57.390;-2.468;2023-04-06T00:01:04;14.73;;;12.52;;
22449;SDS011;11392;57.390;-2.468;2023-04-06T00:03:31;14.95;;;12.55;;
22449;SDS011;11392;57.390;-2.468;2023-04-06T00:05:58;16.73;;;12.57;;
22449;SDS011;11392;57.390;-2.468;2023-04-06T00:08:26;15.57;;;13.27;;
22449;SDS011;11392;57.390;-2.468;2023-04-06T00:10:53;18.05;;;13.27;;
22449;SDS011;11392;57.390;-2.468;2023-04-06T00:13:21;18.77;;;13.38;;
22449;SDS011;11392;57.390;-2.468;2023-04-06T00:15:48;18.20;;;13.73;;
22449;SDS011;11392;57.390;-2.468;2023-04-06T00:18:15;15.38;;;12.02;;
22449;SDS011;11392;57.390;-2.468;2023-04-06T00:20:42;20.52;;;14.68;;
22449;SDS011;11392;57.390;-2.468;2023-04-06T00:23:09;16.67;;;13.63;;
22449;SDS011;11392;57.390;-2.468;2023-04-06T00:25:37;16.63;;;13.63;;
22449;SDS011;11392;57.390;-2.468;2023-04-06T00:28:04;14.80;;;12.20;;
22449;SDS011;11392;57.390;-2.468;2023-04-06T00:30:31;19.52;;;14.90;;
22449;SDS011;11392;57.390;-2.468;2023-04-06T00:32:58;21.73;;;15.80;;
22449;SDS011;11392;57.390;-2.468;2023-04-06T00:35:25;23.27;;;15.30;;
22449;SDS011;11392;57.390;-2.468;2023-04-06T00:37:52;22.50;;;16.88;;
22449;SDS011;11392;57.390;-2.468;2023-04-06T00:40:19;19.05;;;12.43;;
22449;SDS011;11392;57.390;-2.468;2023-04-06T00:42:46;19.52;;;14.27;;
22449;SDS011;11392;57.390;-2.468;2023-04-06T00:45:13;24.13;;;17.10;;
22449;SDS011;11392;57.390;-2.468;2023-04-06T00:47:41;21.52;;;16.73;;
22449;SDS011;11392;57.390;-2.468;2023-04-06T00:50:08;23.10;;;17.15;;
22449;SDS011;11392;57.390;-2.468;2023-04-06T00:52:36;24.27;;;17.63;;
22449;SDS011;11392;57.390;-2.468;2023-04-06T00:55:03;16.45;;;13.48;;
22449;SDS011;11392;57.390;-2.468;2023-04-06T00:57:31;25.45;;;18.48;;
22449;SDS011;11392;57.390;-2.468;2023-04-06T00:59:58;26.33;;;18.92;;
22449;SDS011;11392;57.390;-2.468;2023-04-06T01:02:26;25.15;;;19.13;;
22449;SDS011;11392;57.390;-2.468;2023-04-06T01:04:54;30.45;;;19.77;;
22449;SDS011;11392;57.390;-2.468;2023-04-06T01:07:21;28.85;;;19.55;;
22449;SDS011;11392;57.390;-2.468;2023-04-06T01:09:48;27.35;;;18.75;;
22449;SDS011;11392;57.390;-2.468;2023-04-06T01:12:15;30.15;;;20.05;;
22449;SDS011;11392;57.390;-2.468;2023-04-06T01:14:43;23.90;;;16.85;;
22449;SDS011;11392;57.390;-2.468;2023-04-06T01:17:10;27.27;;;18.48;;
22449;SDS011;11392;57.390;-2.468;2023-04-06T01:19:37;28.30;;;19.13;;
22449;SDS011;11392;57.390;-2.468;2023-04-06T01:22:06;28.70;;;19.13;;
22449;SDS011;11392;57.390;-2.468;2023-04-06T01:24:33;28.23;;;19.23;;
22449;SDS011;11392;57.390;-2.468;2023-04-06T01:27:00;26.63;;;18.73;;
22449;SDS011;11392;57.390;-2.468;2023-04-06T01:29:28;24.38;;;17.48;;
22449;SDS011;11392;57.390;-2.468;2023-04-06T01:31:55;19.27;;;14.68;;
22449;SDS011;11392;57.390;-2.468;2023-04-06T01:34:22;22.27;;;16.50;;
22449;SDS011;11392;57.390;-2.468;2023-04-06T01:36:49;22.20;;;16.77;;
22449;SDS011;11392;57.390;-2.468;2023-04-06T01:39:16;20.13;;;15.20;;
22449;SDS011;11392;57.390;-2.468;2023-04-06T01:41:45;18.10;;;14.00;;
22449;SDS011;11392;57.390;-2.468;2023-04-06T01:44:16;15.98;;;13.07;;
22449;SDS011;11392;57.390;-2.468;2023-04-06T01:46:45;16.73;;;12.80;;
22449;SDS011;11392;57.390;-2.468;2023-04-06T01:49:12;15.60;;;12.70;;
22449;SDS011;11392;57.390;-2.468;2023-04-06T01:51:40;15.30;;;12.48;;
22449;SDS011;11392;57.390;-2.468;2023-04-06T01:54:07;18.27;;;15.05;;
22449;SDS011;11392;57.390;-2.468;2023-04-06T01:56:34;21.75;;;16.42;;
22449;SDS011;11392;57.390;-2.468;2023-04-06T01:59:01;20.00;;;15.73;;
22449;SDS011;11392;57.390;-2.468;2023-04-06T02:01:29;22.40;;;15.88;;
22449;SDS011;11392;57.390;-2.468;2023-04-06T02:03:56;12.77;;;10.40;;
22449;SDS011;11392;57.390;-2.468;2023-04-06T02:06:23;17.23;;;12.82;;
22449;SDS011;11392;57.390;-2.468;2023-04-06T02:08:50;23.17;;;18.60;;
22449;SDS011;11392;57.390;-2.468;2023-04-06T02:11:17;27.10;;;18.92;;
22449;SDS011;11392;57.390;-2.468;2023-04-06T02:13:44;19.50;;;14.07;;
22449;SDS011;11392;57.390;-2.468;2023-04-06T02:16:11;16.15;;;12.55;;
22449;SDS011;11392;57.390;-2.468;2023-04-06T02:18:39;14.45;;;12.07;;
22449;SDS011;11392;57.390;-2.468;2023-04-06T02:21:06;17.38;;;13.10;;
22449;SDS011;11392;57.390;-2.468;2023-04-06T02:23:33;18.90;;;14.27;;
22449;SDS011;11392;57.390;-2.468;2023-04-06T02:26:00;23.23;;;17.38;;
22449;SDS011;11392;57.390;-2.468;2023-04-06T02:28:27;28.52;;;20.70;;
22449;SDS011;11392;57.390;-2.468;2023-04-06T02:30:54;16.65;;;12.85;;
22449;SDS011;11392;57.390;-2.468;2023-04-06T02:33:21;24.15;;;17.80;;
22449;SDS011;11392;57.390;-2.468;2023-04-06T02:35:48;25.77;;;17.13;;
22449;SDS011;11392;57.390;-2.468;2023-04-06T02:38:15;19.80;;;15.20;;
22449;SDS011;11392;57.390;-2.468;2023-04-06T02:40:42;23.70;;;18.15;;
22449;SDS011;11392;57.390;-2.468;2023-04-06T02:43:10;28.23;;;20.88;;
22449;SDS011;11392;57.390;-2.468;2023-04-06T02:45:37;24.65;;;18.10;;
22449;SDS011;11392;57.390;-2.468;2023-04-06T02:48:04;18.27;;;14.20;;
22449;SDS011;11392;57.390;-2.468;2023-04-06T02:50:31;18.58;;;13.75;;
22449;SDS011;11392;57.390;-2.468;2023-04-06T02:52:58;14.70;;;12.25;;
22449;SDS011;11392;57.390;-2.468;2023-04-06T02:55:25;25.15;;;17.67;;
22449;SDS011;11392;57.390;-2.468;2023-04-06T02:57:52;14.48;;;11.20;;
22449;SDS011;11392;57.390;-2.468;2023-04-06T03:00:19;21.35;;;16.30;;
22449;SDS011;11392;57.390;-2.468;2023-04-06T03:02:47;18.20;;;13.25;;
22449;SDS011;11392;57.390;-2.468;2023-04-06T03:05:14;19.88;;;14.82;;
22449;SDS011;11392;57.390;-2.468;2023-04-06T03:07:41;13.60;;;11.10;;
22449;SDS011;11392;57.390;-2.468;2023-04-06T03:10:08;17.20;;;13.20;;
22449;SDS011;11392;57.390;-2.468;2023-04-06T03:12:36;15.85;;;12.63;;
22449;SDS011;11392;57.390;-2.468;2023-04-06T03:15:03;12.38;;;9.23;;
22449;SDS011;11392;57.390;-2.468;2023-04-06T03:17:31;9.73;;;8.45;;
22449;SDS011;11392;57.390;-2.468;2023-04-06T03:19:58;9.63;;;6.88;;
22449;SDS011;11392;57.390;-2.468;2023-04-06T03:22:25;5.15;;;4.13;;
22449;SDS011;11392;57.390;-2.468;2023-04-06T03:24:52;4.20;;;3.78;;
22449;SDS011;11392;57.390;-2.468;2023-04-06T03:27:19;5.45;;;3.88;;
22449;SDS011;11392;57.390;-2.468;2023-04-06T03:29:46;5.95;;;3.30;;
22449;SDS011;11392;57.390;-2.468;2023-04-06T03:32:13;3.42;;;2.90;;
22449;SDS011;11392;57.390;-2.468;2023-04-06T03:34:40;5.10;;;2.90;;
22449;SDS011;11392;57.390;-2.468;2023-04-06T03:37:07;2.58;;;2.30;;
22449;SDS011;11392;57.390;-2.468;2023-04-06T03:39:36;2.22;;;2.03;;
22449;SDS011;11392;57.390;-2.468;2023-04-06T03:42:03;2.67;;;2.03;;
22449;SDS011;11392;57.390;-2.468;2023-04-06T03:44:30;2.17;;;1.83;;
22449;SDS011;11392;57.390;-2.468;2023-04-06T03:46:58;3.55;;;2.22;;
22449;SDS011;11392;57.390;-2.468;2023-04-06T03:49:25;4.30;;;2.20;;
22449;SDS011;11392;57.390;-2.468;2023-04-06T03:51:52;2.63;;;1.80;;
22449;SDS011;11392;57.390;-2.468;2023-04-06T03:54:19;2.80;;;1.48;;
22449;SDS011;11392;57.390;-2.468;2023-04-06T03:56:47;4.22;;;1.60;;
22449;SDS011;11392;57.390;-2.468;2023-04-06T03:59:14;2.05;;;1.70;;
22449;SDS011;11392;57.390;-2.468;2023-04-06T04:01:41;4.05;;;1.90;;
22449;SDS011;11392;57.390;-2.468;2023-04-06T04:04:09;3.65;;;1.90;;
22449;SDS011;11392;57.390;-2.468;2023-04-06T04:06:36;3.88;;;1.88;;
22449;SDS011;11392;57.390;-2.468;2023-04-06T04:09:04;2.10;;;1.60;;
22449;SDS011;11392;57.390;-2.468;2023-04-06T04:11:31;3.97;;;1.42;;
22449;SDS011;11392;57.390;-2.468;2023-04-06T04:13:58;3.40;;;1.48;;
22449;SDS011;11392;57.390;-2.468;2023-04-06T04:16:25;3.92;;;1.40;;
22449;SDS011;11392;57.390;-2.468;2023-04-06T04:18:53;3.38;;;1.38;;
22449;SDS011;11392;57.390;-2.468;2023-04-06T04:21:20;2.75;;;1.35;;
22449;SDS011;11392;57.390;-2.468;2023-04-06T04:23:47;3.10;;;1.63;;
22449;SDS011;11392;57.390;-2.468;2023-04-06T04:26:14;2.40;;;1.75;;
22449;SDS011;11392;57.390;-2.468;2023-04-06T04:28:41;1.45;;;1.15;;
22449;SDS011;11392;57.390;-2.468;2023-04-06T04:31:08;4.05;;;2.17;;
22449;SDS011;11392;57.390;-2.468;2023-04-06T04:33:35;2.50;;;1.65;;
22449;SDS011;11392;57.390;-2.468;2023-04-06T04:36:02;6.28;;;1.95;;
22449;SDS011;11392;57.390;-2.468;2023-04-06T04:38:29;4.18;;;1.70;;
22449;SDS011;11392;57.390;-2.468;2023-04-06T04:40:57;2.38;;;1.50;;
22449;SDS011;11392;57.390;-2.468;2023-04-06T04:43:24;3.20;;;1.52;;
22449;SDS011;11392;57.390;-2.468;2023-04-06T04:45:51;3.03;;;1.73;;
22449;SDS011;11392;57.390;-2.468;2023-04-06T04:48:18;2.92;;;1.40;;
22449;SDS011;11392;57.390;-2.468;2023-04-06T04:50:46;2.10;;;1.58;;
22449;SDS011;11392;57.390;-2.468;2023-04-06T04:53:13;3.25;;;2.10;;
22449;SDS011;11392;57.390;-2.468;2023-04-06T04:55:40;5.78;;;1.88;;
22449;SDS011;11392;57.390;-2.468;2023-04-06T04:58:07;3.33;;;1.40;;
22449;SDS011;11392;57.390;-2.468;2023-04-06T05:00:37;2.00;;;1.33;;
22449;SDS011;11392;57.390;-2.468;2023-04-06T05:03:04;1.95;;;1.40;;
22449;SDS011;11392;57.390;-2.468;2023-04-06T05:05:31;1.92;;;1.60;;
22449;SDS011;11392;57.390;-2.468;2023-04-06T05:07:58;1.92;;;0.98;;
22449;SDS011;11392;57.390;-2.468;2023-04-06T05:10:25;4.05;;;1.50;;
22449;SDS011;11392;57.390;-2.468;2023-04-06T05:12:53;1.35;;;1.20;;
22449;SDS011;11392;57.390;-2.468;2023-04-06T05:15:20;1.70;;;1.20;;
22449;SDS011;11392;57.390;-2.468;2023-04-06T05:17:47;1.88;;;1.05;;
22449;SDS011;11392;57.390;-2.468;2023-04-06T05:20:14;2.28;;;1.20;;
22449;SDS011;11392;57.390;-2.468;2023-04-06T05:22:42;1.40;;;1.30;;
22449;SDS011;11392;57.390;-2.468;2023-04-06T05:25:09;1.67;;;1.20;;
22449;SDS011;11392;57.390;-2.468;2023-04-06T05:27:36;1.95;;;1.15;;
22449;SDS011;11392;57.390;-2.468;2023-04-06T05:30:03;1.08;;;1.00;;
22449;SDS011;11392;57.390;-2.468;2023-04-06T05:32:31;1.88;;;1.17;;
22449;SDS011;11392;57.390;-2.468;2023-04-06T05:34:59;4.63;;;1.58;;
22449;SDS011;11392;57.390;-2.468;2023-04-06T05:37:26;2.72;;;1.40;;
22449;SDS011;11392;57.390;-2.468;2023-04-06T05:39:53;2.85;;;1.45;;
22449;SDS011;11392;57.390;-2.468;2023-04-06T05:42:20;1.73;;;1.00;;
22449;SDS011;11392;57.390;-2.468;2023-04-06T05:44:48;2.33;;;1.30;;
22449;SDS011;11392;57.390;-2.468;2023-04-06T05:47:15;1.95;;;1.10;;
22449;SDS011;11392;57.390;-2.468;2023-04-06T05:49:43;2.20;;;1.00;;
22449;SDS011;11392;57.390;-2.468;2023-04-06T05:52:09;1.88;;;1.30;;
22449;SDS011;11392;57.390;-2.468;2023-04-06T05:54:37;1.13;;;0.80;;
22449;SDS011;11392;57.390;-2.468;2023-04-06T05:57:03;3.17;;;0.88;;
22449;SDS011;11392;57.390;-2.468;2023-04-06T05:59:31;0.73;;;0.73;;
22449;SDS011;11392;57.390;-2.468;2023-04-06T06:01:58;1.30;;;0.82;;
22449;SDS011;11392;57.390;-2.468;2023-04-06T06:04:27;0.60;;;0.60;;
22449;SDS011;11392;57.390;-2.468;2023-04-06T06:06:54;0.73;;;0.60;;
22449;SDS011;11392;57.390;-2.468;2023-04-06T06:09:21;1.45;;;0.98;;
22449;SDS011;11392;57.390;-2.468;2023-04-06T06:11:49;0.88;;;0.63;;
22449;SDS011;11392;57.390;-2.468;2023-04-06T06:14:16;1.90;;;0.70;;
22449;SDS011;11392;57.390;-2.468;2023-04-06T06:16:43;1.13;;;0.63;;
22449;SDS011;11392;57.390;-2.468;2023-04-06T06:19:10;2.78;;;0.63;;
22449;SDS011;11392;57.390;-2.468;2023-04-06T06:21:37;0.47;;;0.47;;
22449;SDS011;11392;57.390;-2.468;2023-04-06T06:24:04;0.60;;;0.60;;
22449;SDS011;11392;57.390;-2.468;2023-04-06T06:26:31;3.50;;;0.95;;
22449;SDS011;11392;57.390;-2.468;2023-04-06T06:28:59;1.77;;;0.80;;
22449;SDS011;11392;57.390;-2.468;2023-04-06T06:31:26;1.67;;;0.93;;
22449;SDS011;11392;57.390;-2.468;2023-04-06T06:33:53;1.63;;;0.95;;
22449;SDS011;11392;57.390;-2.468;2023-04-06T06:36:20;2.05;;;1.20;;
22449;SDS011;11392;57.390;-2.468;2023-04-06T06:38:47;2.78;;;1.05;;
22449;SDS011;11392;57.390;-2.468;2023-04-06T06:41:14;1.60;;;1.00;;
22449;SDS011;11392;57.390;-2.468;2023-04-06T06:43:41;4.03;;;1.55;;
22449;SDS011;11392;57.390;-2.468;2023-04-06T06:46:09;2.25;;;1.38;;
22449;SDS011;11392;57.390;-2.468;2023-04-06T06:48:36;2.88;;;1.58;;
22449;SDS011;11392;57.390;-2.468;2023-04-06T06:51:03;2.47;;;1.20;;
22449;SDS011;11392;57.390;-2.468;2023-04-06T06:53:30;2.22;;;1.15;;
22449;SDS011;11392;57.390;-2.468;2023-04-06T06:55:57;2.75;;;1.05;;
22449;SDS011;11392;57.390;-2.468;2023-04-06T06:58:24;4.60;;;1.40;;
22449;SDS011;11392;57.390;-2.468;2023-04-06T07:00:55;2.45;;;1.00;;
22449;SDS011;11392;57.390;-2.468;2023-04-06T07:03:23;2.55;;;0.95;;
22449;SDS011;11392;57.390;-2.468;2023-04-06T07:05:50;2.00;;;1.10;;
22449;SDS011;11392;57.390;-2.468;2023-04-06T07:08:21;1.48;;;1.20;;
22449;SDS011;11392;57.390;-2.468;2023-04-06T07:10:53;5.80;;;1.40;;
22449;SDS011;11392;57.390;-2.468;2023-04-06T07:13:22;2.17;;;1.10;;
22449;SDS011;11392;57.390;-2.468;2023-04-06T07:15:50;2.42;;;1.13;;
22449;SDS011;11392;57.390;-2.468;2023-04-06T07:18:18;2.72;;;1.00;;
22449;SDS011;11392;57.390;-2.468;2023-04-06T07:20:46;3.13;;;1.40;;
22449;SDS011;11392;57.390;-2.468;2023-04-06T07:23:13;3.15;;;1.13;;
22449;SDS011;11392;57.390;-2.468;2023-04-06T07:25:40;3.65;;;1.30;;
22449;SDS011;11392;57.390;-2.468;2023-04-06T07:28:08;3.55;;;2.10;;
22449;SDS011;11392;57.390;-2.468;2023-04-06T07:30:36;1.88;;;1.20;;
22449;SDS011;11392;57.390;-2.468;2023-04-06T07:33:04;1.85;;;1.13;;
22449;SDS011;11392;57.390;-2.468;2023-04-06T07:35:32;2.45;;;1.08;;
22449;SDS011;11392;57.390;-2.468;2023-04-06T07:38:00;2.63;;;1.20;;
22449;SDS011;11392;57.390;-2.468;2023-04-06T07:40:27;1.92;;;1.00;;
22449;SDS011;11392;57.390;-2.468;2023-04-06T07:42:55;1.45;;;0.98;;
22449;SDS011;11392;57.390;-2.468;2023-04-06T07:45:23;3.28;;;1.50;;
22449;SDS011;11392;57.390;-2.468;2023-04-06T07:47:50;3.00;;;1.30;;
22449;SDS011;11392;57.390;-2.468;2023-04-06T07:50:17;3.10;;;1.27;;
22449;SDS011;11392;57.390;-2.468;2023-04-06T07:52:44;2.10;;;0.90;;
22449;SDS011;11392;57.390;-2.468;2023-04-06T07:55:12;3.20;;;0.90;;
22449;SDS011;11392;57.390;-2.468;2023-04-06T07:57:39;3.75;;;1.27;;
22449;SDS011;11392;57.390;-2.468;2023-04-06T08:00:06;2.08;;;1.13;;
22449;SDS011;11392;57.390;-2.468;2023-04-06T08:02:35;1.60;;;0.77;;
22449;SDS011;11392;57.390;-2.468;2023-04-06T08:05:03;1.40;;;0.95;;
22449;SDS011;11392;57.390;-2.468;2023-04-06T08:07:30;4.28;;;1.27;;
22449;SDS011;11392;57.390;-2.468;2023-04-06T08:09:57;4.20;;;1.08;;
22449;SDS011;11392;57.390;-2.468;2023-04-06T08:12:24;2.40;;;1.10;;
22449;SDS011;11392;57.390;-2.468;2023-04-06T08:14:51;3.33;;;1.05;;
22449;SDS011;11392;57.390;-2.468;2023-04-06T08:17:18;2.90;;;1.13;;
22449;SDS011;11392;57.390;-2.468;2023-04-06T08:19:45;2.75;;;1.15;;
22449;SDS011;11392;57.390;-2.468;2023-04-06T08:22:12;1.75;;;0.95;;
22449;SDS011;11392;57.390;-2.468;2023-04-06T08:24:40;3.22;;;1.30;;
22449;SDS011;11392;57.390;-2.468;2023-04-06T08:27:07;1.58;;;1.05;;
22449;SDS011;11392;57.390;-2.468;2023-04-06T08:29:34;3.60;;;1.10;;
22449;SDS011;11392;57.390;-2.468;2023-04-06T08:32:01;1.23;;;0.68;;
22449;SDS011;11392;57.390;-2.468;2023-04-06T08:34:34;2.20;;;0.88;;
22449;SDS011;11392;57.390;-2.468;2023-04-06T08:37:01;1.92;;;0.93;;
22449;SDS011;11392;57.390;-2.468;2023-04-06T08:39:28;2.35;;;1.00;;
22449;SDS011;11392;57.390;-2.468;2023-04-06T08:41:57;1.88;;;0.90;;
22449;SDS011;11392;57.390;-2.468;2023-04-06T08:44:26;2.85;;;0.77;;
22449;SDS011;11392;57.390;-2.468;2023-04-06T08:46:54;2.45;;;0.90;;
22449;SDS011;11392;57.390;-2.468;2023-04-06T08:49:21;2.35;;;0.90;;
22449;SDS011;11392;57.390;-2.468;2023-04-06T08:51:49;2.72;;;0.98;;
22449;SDS011;11392;57.390;-2.468;2023-04-06T08:54:17;5.15;;;2.80;;
22449;SDS011;11392;57.390;-2.468;2023-04-06T08:56:44;1.35;;;0.75;;
22449;SDS011;11392;57.390;-2.468;2023-04-06T08:59:12;3.95;;;1.08;;
22449;SDS011;11392;57.390;-2.468;2023-04-06T09:01:40;3.65;;;0.80;;
22449;SDS011;11392;57.390;-2.468;2023-04-06T09:04:09;6.70;;;0.80;;
22449;SDS011;11392;57.390;-2.468;2023-04-06T09:06:39;1.27;;;0.77;;
22449;SDS011;11392;57.390;-2.468;2023-04-06T09:09:07;1.75;;;0.57;;
22449;SDS011;11392;57.390;-2.468;2023-04-06T09:11:42;3.75;;;0.90;;
22449;SDS011;11392;57.390;-2.468;2023-04-06T09:14:09;3.28;;;0.80;;
22449;SDS011;11392;57.390;-2.468;2023-04-06T09:16:40;2.45;;;1.15;;
22449;SDS011;11392;57.390;-2.468;2023-04-06T09:19:08;1.33;;;0.70;;
22449;SDS011;11392;57.390;-2.468;2023-04-06T09:21:36;3.50;;;0.90;;
22449;SDS011;11392;57.390;-2.468;2023-04-06T09:24:04;3.97;;;1.73;;
22449;SDS011;11392;57.390;-2.468;2023-04-06T09:26:43;3.70;;;0.93;;
22449;SDS011;11392;57.390;-2.468;2023-04-06T09:29:21;1.98;;;0.60;;
22449;SDS011;11392;57.390;-2.468;2023-04-06T09:31:50;4.07;;;0.90;;
22449;SDS011;11392;57.390;-2.468;2023-04-06T09:34:21;2.80;;;0.88;;
22449;SDS011;11392;57.390;-2.468;2023-04-06T09:36:49;2.13;;;1.00;;
22449;SDS011;11392;57.390;-2.468;2023-04-06T09:39:20;3.92;;;1.05;;
22449;SDS011;11392;57.390;-2.468;2023-04-06T09:41:50;3.00;;;0.98;;
22449;SDS011;11392;57.390;-2.468;2023-04-06T09:44:18;5.30;;;1.40;;
22449;SDS011;11392;57.390;-2.468;2023-04-06T09:46:46;2.70;;;0.90;;
22449;SDS011;11392;57.390;-2.468;2023-04-06T09:49:28;4.97;;;1.17;;
22449;SDS011;11392;57.390;-2.468;2023-04-06T09:52:03;3.17;;;1.27;;
22449;SDS011;11392;57.390;-2.468;2023-04-06T09:54:34;4.45;;;1.13;;
22449;SDS011;11392;57.390;-2.468;2023-04-06T10:04:56;4.10;;;1.20;;
22449;SDS011;11392;57.390;-2.468;2023-04-06T10:07:28;4.18;;;1.25;;
22449;SDS011;11392;57.390;-2.468;2023-04-06T10:09:56;5.43;;;1.02;;
22449;SDS011;11392;57.390;-2.468;2023-04-06T10:12:25;7.43;;;1.10;;
22449;SDS011;11392;57.390;-2.468;2023-04-06T10:14:52;4.13;;;1.08;;
22449;SDS011;11392;57.390;-2.468;2023-04-06T10:17:19;4.13;;;1.30;;
22449;SDS011;11392;57.390;-2.468;2023-04-06T10:19:49;2.60;;;1.10;;
22449;SDS011;11392;57.390;-2.468;2023-04-06T10:22:26;4.03;;;1.08;;
22449;SDS011;11392;57.390;-2.468;2023-04-06T10:25:05;3.25;;;1.67;;
22449;SDS011;11392;57.390;-2.468;2023-04-06T10:27:34;4.10;;;1.20;;
22449;SDS011;11392;57.390;-2.468;2023-04-06T10:30:05;4.43;;;1.40;;
22449;SDS011;11392;57.390;-2.468;2023-04-06T10:35:05;4.22;;;1.45;;
22449;SDS011;11392;57.390;-2.468;2023-04-06T10:37:49;2.15;;;1.33;;
22449;SDS011;11392;57.390;-2.468;2023-04-06T10:40:21;3.17;;;1.08;;
22449;SDS011;11392;57.390;-2.468;2023-04-06T10:42:55;5.05;;;1.50;;
22449;SDS011;11392;57.390;-2.468;2023-04-06T10:45:33;4.63;;;1.63;;
22449;SDS011;11392;57.390;-2.468;2023-04-06T10:48:01;5.03;;;1.50;;
22449;SDS011;11392;57.390;-2.468;2023-04-06T10:50:40;2.78;;;1.05;;
22449;SDS011;11392;57.390;-2.468;2023-04-06T10:53:20;2.83;;;1.23;;
22449;SDS011;11392;57.390;-2.468;2023-04-06T10:55:49;3.92;;;1.63;;
22449;SDS011;11392;57.390;-2.468;2023-04-06T10:58:17;6.25;;;2.17;;
22449;SDS011;11392;57.390;-2.468;2023-04-06T11:00:45;4.00;;;1.50;;
22449;SDS011;11392;57.390;-2.468;2023-04-06T11:03:16;2.85;;;1.30;;
22449;SDS011;11392;57.390;-2.468;2023-04-06T11:05:44;4.38;;;1.50;;
22449;SDS011;11392;57.390;-2.468;2023-04-06T11:08:49;3.65;;;1.52;;
22449;SDS011;11392;57.390;-2.468;2023-04-06T11:11:10;5.68;;;1.92;;
22449;SDS011;11392;57.390;-2.468;2023-04-06T11:13:51;5.68;;;1.88;;
22449;SDS011;11392;57.390;-2.468;2023-04-06T11:16:24;12.43;;;2.80;;
22449;SDS011;11392;57.390;-2.468;2023-04-06T11:19:00;3.38;;;2.08;;
22449;SDS011;11392;57.390;-2.468;2023-04-06T11:21:38;4.60;;;1.92;;
22449;SDS011;11392;57.390;-2.468;2023-04-06T11:29:21;5.22;;;1.58;;
22449;SDS011;11392;57.390;-2.468;2023-04-06T11:31:53;5.03;;;1.67;;
22449;SDS011;11392;57.390;-2.468;2023-04-06T11:34:25;5.40;;;2.28;;
22449;SDS011;11392;57.390;-2.468;2023-04-06T11:36:55;4.72;;;1.70;;
22449;SDS011;11392;57.390;-2.468;2023-04-06T11:39:27;3.35;;;1.20;;
22449;SDS011;11392;57.390;-2.468;2023-04-06T11:41:59;3.35;;;1.40;;
22449;SDS011;11392;57.390;-2.468;2023-04-06T11:44:34;4.60;;;1.73;;
22449;SDS011;11392;57.390;-2.468;2023-04-06T11:47:15;4.50;;;1.33;;
22449;SDS011;11392;57.390;-2.468;2023-04-06T11:49:43;7.57;;;1.42;;
22449;SDS011;11392;57.390;-2.468;2023-04-06T11:52:20;9.68;;;1.55;;
22449;SDS011;11392;57.390;-2.468;2023-04-06T11:54:52;5.47;;;1.20;;
22449;SDS011;11392;57.390;-2.468;2023-04-06T11:57:21;3.85;;;1.10;;
22449;SDS011;11392;57.390;-2.468;2023-04-06T11:59:52;4.07;;;1.02;;
22449;SDS011;11392;57.390;-2.468;2023-04-06T12:02:19;2.58;;;1.08;;
22449;SDS011;11392;57.390;-2.468;2023-04-06T12:04:46;3.40;;;1.05;;
22449;SDS011;11392;57.390;-2.468;2023-04-06T12:07:13;3.78;;;1.23;;
22449;SDS011;11392;57.390;-2.468;2023-04-06T12:09:41;3.90;;;1.10;;
22449;SDS011;11392;57.390;-2.468;2023-04-06T12:12:08;3.17;;;1.35;;
22449;SDS011;11392;57.390;-2.468;2023-04-06T12:14:35;4.45;;;1.30;;
22449;SDS011;11392;57.390;-2.468;2023-04-06T12:17:02;5.53;;;1.77;;
22449;SDS011;11392;57.390;-2.468;2023-04-06T12:19:29;5.32;;;1.42;;
22449;SDS011;11392;57.390;-2.468;2023-04-06T12:21:58;2.33;;;1.25;;
22449;SDS011;11392;57.390;-2.468;2023-04-06T12:24:25;3.53;;;1.60;;
22449;SDS011;11392;57.390;-2.468;2023-04-06T12:26:52;3.17;;;1.20;;
22449;SDS011;11392;57.390;-2.468;2023-04-06T12:29:34;7.43;;;1.95;;
22449;SDS011;11392;57.390;-2.468;2023-04-06T12:32:02;3.22;;;0.90;;
22449;SDS011;11392;57.390;-2.468;2023-04-06T12:34:29;5.53;;;1.33;;
22449;SDS011;11392;57.390;-2.468;2023-04-06T12:36:56;3.20;;;1.00;;
22449;SDS011;11392;57.390;-2.468;2023-04-06T12:39:23;1.40;;;0.95;;
22449;SDS011;11392;57.390;-2.468;2023-04-06T12:41:52;5.22;;;0.93;;
22449;SDS011;11392;57.390;-2.468;2023-04-06T12:44:19;1.58;;;1.17;;
22449;SDS011;11392;57.390;-2.468;2023-04-06T12:46:46;2.03;;;0.88;;
22449;SDS011;11392;57.390;-2.468;2023-04-06T12:49:13;2.50;;;0.98;;
22449;SDS011;11392;57.390;-2.468;2023-04-06T12:51:43;1.30;;;0.60;;
22449;SDS011;11392;57.390;-2.468;2023-04-06T12:54:10;2.83;;;0.77;;
22449;SDS011;11392;57.390;-2.468;2023-04-06T12:56:38;1.55;;;0.65;;
22449;SDS011;11392;57.390;-2.468;2023-04-06T12:59:05;1.13;;;0.57;;
22449;SDS011;11392;57.390;-2.468;2023-04-06T13:01:33;1.85;;;0.57;;
22449;SDS011;11392;57.390;-2.468;2023-04-06T13:04:00;1.73;;;0.70;;
22449;SDS011;11392;57.390;-2.468;2023-04-06T13:06:27;4.05;;;1.30;;
22449;SDS011;11392;57.390;-2.468;2023-04-06T13:08:54;3.17;;;0.65;;
22449;SDS011;11392;57.390;-2.468;2023-04-06T13:11:22;3.33;;;0.80;;
22449;SDS011;11392;57.390;-2.468;2023-04-06T13:13:53;3.40;;;0.90;;
22449;SDS011;11392;57.390;-2.468;2023-04-06T13:16:21;3.95;;;1.00;;
22449;SDS011;11392;57.390;-2.468;2023-04-06T13:18:48;2.47;;;0.60;;
22449;SDS011;11392;57.390;-2.468;2023-04-06T13:21:16;1.50;;;0.30;;
22449;SDS011;11392;57.390;-2.468;2023-04-06T13:23:43;1.25;;;0.40;;
22449;SDS011;11392;57.390;-2.468;2023-04-06T13:26:11;1.27;;;0.40;;
22449;SDS011;11392;57.390;-2.468;2023-04-06T13:28:40;1.95;;;0.35;;
22449;SDS011;11392;57.390;-2.468;2023-04-06T13:31:07;1.10;;;0.30;;
22449;SDS011;11392;57.390;-2.468;2023-04-06T13:33:36;0.25;;;0.25;;
22449;SDS011;11392;57.390;-2.468;2023-04-06T13:36:03;0.45;;;0.25;;
22449;SDS011;11392;57.390;-2.468;2023-04-06T13:38:31;1.73;;;0.45;;
22449;SDS011;11392;57.390;-2.468;2023-04-06T13:41:00;0.40;;;0.30;;
22449;SDS011;11392;57.390;-2.468;2023-04-06T13:43:27;2.50;;;0.40;;
22449;SDS011;11392;57.390;-2.468;2023-04-06T13:45:54;0.40;;;0.40;;
22449;SDS011;11392;57.390;-2.468;2023-04-06T13:48:22;0.30;;;0.30;;
22449;SDS011;11392;57.390;-2.468;2023-04-06T13:50:49;1.48;;;0.30;;
22449;SDS011;11392;57.390;-2.468;2023-04-06T13:53:16;1.42;;;0.30;;
22449;SDS011;11392;57.390;-2.468;2023-04-06T13:55:47;2.28;;;0.40;;
22449;SDS011;11392;57.390;-2.468;2023-04-06T13:58:19;1.20;;;0.30;;
22449;SDS011;11392;57.390;-2.468;2023-04-06T14:00:46;0.73;;;0.20;;
22449;SDS011;11392;57.390;-2.468;2023-04-06T14:03:14;1.27;;;0.40;;
22449;SDS011;11392;57.390;-2.468;2023-04-06T14:05:41;0.98;;;0.40;;
22449;SDS011;11392;57.390;-2.468;2023-04-06T14:08:09;0.95;;;0.22;;
22449;SDS011;11392;57.390;-2.468;2023-04-06T14:10:36;0.20;;;0.20;;
22449;SDS011;11392;57.390;-2.468;2023-04-06T14:13:04;0.63;;;0.20;;
22449;SDS011;11392;57.390;-2.468;2023-04-06T14:15:31;0.50;;;0.38;;
22449;SDS011;11392;57.390;-2.468;2023-04-06T14:17:58;2.40;;;0.90;;
22449;SDS011;11392;57.390;-2.468;2023-04-06T14:20:26;1.55;;;0.50;;
22449;SDS011;11392;57.390;-2.468;2023-04-06T14:22:54;0.47;;;0.20;;
22449;SDS011;11392;57.390;-2.468;2023-04-06T14:25:21;3.65;;;0.60;;
22449;SDS011;11392;57.390;-2.468;2023-04-06T14:27:49;1.02;;;0.40;;
22449;SDS011;11392;57.390;-2.468;2023-04-06T14:30:16;0.85;;;0.30;;
22449;SDS011;11392;57.390;-2.468;2023-04-06T14:32:43;1.70;;;0.30;;
22449;SDS011;11392;57.390;-2.468;2023-04-06T14:35:10;1.13;;;0.43;;
22449;SDS011;11392;57.390;-2.468;2023-04-06T14:37:37;0.50;;;0.30;;
22449;SDS011;11392;57.390;-2.468;2023-04-06T14:40:04;0.60;;;0.30;;
22449;SDS011;11392;57.390;-2.468;2023-04-06T14:42:32;0.52;;;0.20;;
22449;SDS011;11392;57.390;-2.468;2023-04-06T14:45:00;0.57;;;0.45;;
22449;SDS011;11392;57.390;-2.468;2023-04-06T14:47:27;0.35;;;0.20;;
22449;SDS011;11392;57.390;-2.468;2023-04-06T14:49:54;0.80;;;0.40;;